createdAt,value
2022-11-04T00:00:28.629Z,11.20
2022-11-04T00:02:57.745Z,11.30
2022-11-04T00:05:25.449Z,11.30
2022-11-04T00:08:10.752Z,11.30
2022-11-04T00:10:55.886Z,11.30
2022-11-04T00:13:23.565Z,11.30
2022-11-04T00:16:12.210Z,11.30
2022-11-04T00:18:39.876Z,11.30
2022-11-04T00:21:36.635Z,11.40
2022-11-04T00:24:22.609Z,11.40
2022-11-04T00:27:08.211Z,11.40
2022-11-04T00:29:35.900Z,11.40
2022-11-04T00:32:22.512Z,11.40
2022-11-04T00:34:50.194Z,11.50
2022-11-04T00:37:17.888Z,11.50
2022-11-04T00:39:45.691Z,11.40
2022-11-04T00:42:13.644Z,11.40
2022-11-04T00:44:41.338Z,11.40
2022-11-04T00:47:10.391Z,11.40
2022-11-04T00:49:38.099Z,11.40
2022-11-04T00:52:05.981Z,11.40
2022-11-04T00:54:35.453Z,11.50
2022-11-04T00:57:03.166Z,11.40
2022-11-04T00:59:30.929Z,11.40
2022-11-04T01:01:58.793Z,11.50
2022-11-04T01:04:27.954Z,11.40
2022-11-04T01:06:55.922Z,11.60
2022-11-04T01:09:23.629Z,11.50
2022-11-04T01:11:51.567Z,11.50
2022-11-04T01:14:19.506Z,11.50
2022-11-04T01:16:47.319Z,11.50
2022-11-04T01:19:15.007Z,11.50
2022-11-04T01:21:44.102Z,11.40
2022-11-04T01:24:11.933Z,11.40
2022-11-04T01:26:39.635Z,11.40
2022-11-04T01:29:07.395Z,11.40
2022-11-04T01:31:35.100Z,11.30
2022-11-04T01:34:02.770Z,11.30
2022-11-04T01:36:30.472Z,11.30
2022-11-04T01:38:59.499Z,11.30
2022-11-04T01:41:28.158Z,11.30
2022-11-04T01:43:56.577Z,11.30
2022-11-04T01:46:28.430Z,11.30
2022-11-04T01:48:59.288Z,11.40
2022-11-04T01:51:27.742Z,11.30
2022-11-04T01:53:56.810Z,11.40
2022-11-04T01:56:26.523Z,11.40
2022-11-04T01:58:56.660Z,11.40
2022-11-04T02:01:24.516Z,11.40
2022-11-04T02:03:54.064Z,11.50
2022-11-04T02:06:22.889Z,11.40
2022-11-04T02:08:50.599Z,11.30
2022-11-04T02:11:32.273Z,11.30
2022-11-04T02:14:01.504Z,11.40
2022-11-04T02:16:34.009Z,11.30
2022-11-04T02:19:08.034Z,11.40
2022-11-04T02:21:58.015Z,11.40
2022-11-04T02:24:34.845Z,11.50
2022-11-04T02:27:17.613Z,11.50
2022-11-04T02:29:50.824Z,11.40
2022-11-04T02:32:21.222Z,11.40
2022-11-04T02:34:52.711Z,11.20
2022-11-04T02:37:25.793Z,11.10
2022-11-04T02:39:56.077Z,11.00
2022-11-04T02:42:26.997Z,11.00
2022-11-04T02:45:00.888Z,11.00
2022-11-04T02:47:30.890Z,10.90
2022-11-04T02:50:00.148Z,10.80
2022-11-04T02:52:30.885Z,10.80
2022-11-04T02:55:01.532Z,10.90
2022-11-04T02:57:30.710Z,10.90
2022-11-04T03:00:02.295Z,10.90
2022-11-04T03:02:34.364Z,10.80
2022-11-04T03:05:03.797Z,10.70
2022-11-04T03:07:33.668Z,10.70
2022-11-04T03:10:02.697Z,10.60
2022-11-04T03:12:33.502Z,10.60
2022-11-04T03:15:04.441Z,10.50
2022-11-04T03:17:34.929Z,10.40
2022-11-04T03:20:04.357Z,10.30
2022-11-04T03:22:35.691Z,10.30
2022-11-04T03:25:04.023Z,10.20
2022-11-04T03:27:34.124Z,10.10
2022-11-04T03:30:05.194Z,10.10
2022-11-04T03:32:38.741Z,10.10
2022-11-04T03:35:07.027Z,10.10
2022-11-04T03:37:34.913Z,10.00
2022-11-04T03:40:02.923Z,10.00
2022-11-04T03:42:31.436Z,10.00
2022-11-04T03:44:59.584Z,10.00
2022-11-04T03:47:30.417Z,10.00
2022-11-04T03:50:00.982Z,10.00
2022-11-04T03:52:28.695Z,9.90
2022-11-04T03:54:56.400Z,9.90
2022-11-04T03:57:35.668Z,9.80
2022-11-04T04:00:08.123Z,9.90
2022-11-04T04:02:42.011Z,9.90
2022-11-04T04:05:16.002Z,9.80
2022-11-04T04:07:49.437Z,9.70
2022-11-04T04:10:36.977Z,9.80
2022-11-04T04:13:07.893Z,9.80
2022-11-04T04:15:42.149Z,9.80
2022-11-04T04:18:13.361Z,9.80
2022-11-04T04:20:41.974Z,9.80
2022-11-04T04:23:26.216Z,9.80
2022-11-04T04:26:12.025Z,9.70
2022-11-04T04:28:40.164Z,9.60
2022-11-04T04:31:08.140Z,9.70
2022-11-04T04:33:37.640Z,9.60
2022-11-04T04:36:06.460Z,9.50
2022-11-04T04:38:52.462Z,9.50
2022-11-04T04:41:44.376Z,9.50
2022-11-04T04:44:48.421Z,9.50
2022-11-04T04:47:19.981Z,9.50
2022-11-04T04:49:52.489Z,9.60
2022-11-04T04:52:20.539Z,9.70
2022-11-04T04:54:48.271Z,9.80
2022-11-04T04:57:15.950Z,9.90
2022-11-04T04:59:43.650Z,10.00
2022-11-04T05:02:11.435Z,10.10
2022-11-04T05:04:39.263Z,10.20
2022-11-04T05:07:09.921Z,10.30
2022-11-04T05:09:37.607Z,10.30
2022-11-04T05:12:05.272Z,10.30
2022-11-04T05:14:32.980Z,10.30
2022-11-04T05:17:00.631Z,10.30
2022-11-04T05:19:28.438Z,10.30
2022-11-04T05:21:56.353Z,10.30
2022-11-04T05:24:25.357Z,10.20
2022-11-04T05:26:53.051Z,10.20
2022-11-04T05:29:20.739Z,10.20
2022-11-04T05:31:48.517Z,10.20
2022-11-04T05:34:16.202Z,10.30
2022-11-04T05:36:43.906Z,10.20
2022-11-04T05:39:13.118Z,10.10
2022-11-04T05:41:42.159Z,10.00
2022-11-04T05:44:10.212Z,10.00
2022-11-04T05:46:37.883Z,10.10
2022-11-04T05:49:05.583Z,10.20
2022-11-04T05:51:33.355Z,10.30
2022-11-04T05:54:01.548Z,10.30
2022-11-04T05:56:29.361Z,10.40
2022-11-04T05:58:58.515Z,10.40
2022-11-04T06:01:36.086Z,10.40
2022-11-04T06:04:04.511Z,10.40
2022-11-04T06:06:33.275Z,10.50
2022-11-04T06:09:01.476Z,10.50
2022-11-04T06:11:30.264Z,10.50
2022-11-04T06:13:59.334Z,10.50
2022-11-04T06:16:27.203Z,10.60
2022-11-04T06:18:55.134Z,10.60
2022-11-04T06:21:25.204Z,10.60
2022-11-04T06:23:53.537Z,10.70
2022-11-04T06:26:26.829Z,10.60
2022-11-04T06:28:56.190Z,10.60
2022-11-04T06:31:25.234Z,10.50
2022-11-04T06:33:52.871Z,10.60
2022-11-04T06:36:20.544Z,10.60
2022-11-04T06:38:48.242Z,10.50
2022-11-04T06:41:16.575Z,10.50
2022-11-04T06:43:44.249Z,10.50
2022-11-04T06:46:26.524Z,10.50
2022-11-04T06:48:54.482Z,10.60
2022-11-04T06:51:22.145Z,10.50
2022-11-04T06:53:49.849Z,10.60
2022-11-04T06:56:17.650Z,10.60
2022-11-04T06:58:48.029Z,10.60
2022-11-04T07:01:21.251Z,10.50
2022-11-04T07:03:51.421Z,10.40
2022-11-04T07:06:19.511Z,10.30
2022-11-04T07:08:47.260Z,10.10
2022-11-04T07:11:15.057Z,9.90
2022-11-04T07:13:42.846Z,9.80
2022-11-04T07:16:10.855Z,9.60
2022-11-04T07:18:38.521Z,9.60
2022-11-04T07:21:10.097Z,9.60
2022-11-04T07:23:38.132Z,9.60
2022-11-04T07:26:07.164Z,9.70
2022-11-04T07:28:35.104Z,9.70
2022-11-04T07:31:03.355Z,9.70
2022-11-04T07:33:31.490Z,9.70
2022-11-04T07:35:59.294Z,9.80
2022-11-04T07:38:28.311Z,9.80
2022-11-04T07:40:55.973Z,9.90
2022-11-04T07:43:23.717Z,10.00
2022-11-04T07:45:59.488Z,10.00
2022-11-04T07:48:27.171Z,10.10
2022-11-04T07:50:56.059Z,10.10
2022-11-04T07:53:23.846Z,10.10
2022-11-04T07:55:52.938Z,10.10
2022-11-04T07:58:20.632Z,10.20
2022-11-04T08:00:48.357Z,10.20
2022-11-04T08:03:16.262Z,10.30
2022-11-04T08:05:44.147Z,10.30
2022-11-04T08:08:11.882Z,10.40
2022-11-04T08:10:40.190Z,10.50
2022-11-04T08:13:09.721Z,10.50
2022-11-04T08:15:37.723Z,10.50
2022-11-04T08:18:05.745Z,10.50
2022-11-04T08:20:33.422Z,10.50
2022-11-04T08:23:01.105Z,10.50
2022-11-04T08:25:28.780Z,10.50
2022-11-04T08:28:00.718Z,10.50
2022-11-04T08:30:30.194Z,10.60
2022-11-04T08:32:58.175Z,10.60
2022-11-04T08:35:25.904Z,10.50
2022-11-04T08:37:53.664Z,10.60
2022-11-04T08:40:21.328Z,10.60
2022-11-04T08:42:49.005Z,10.60
2022-11-04T08:45:17.140Z,10.60
2022-11-04T08:47:46.117Z,10.50
2022-11-04T08:50:14.225Z,10.60
2022-11-04T08:52:41.935Z,10.60
2022-11-04T08:55:10.821Z,10.70
2022-11-04T08:57:38.537Z,10.80
2022-11-04T09:00:07.503Z,10.80
2022-11-04T09:02:35.197Z,10.90
2022-11-04T09:05:04.514Z,11.00
2022-11-04T09:07:32.288Z,11.00
2022-11-04T09:09:59.958Z,11.20
2022-11-04T09:12:27.629Z,11.30
2022-11-04T09:14:55.501Z,11.40
2022-11-04T09:17:23.676Z,11.50
2022-11-04T09:19:51.357Z,11.60
2022-11-04T09:22:20.444Z,11.60
2022-11-04T09:24:48.279Z,11.70
2022-11-04T09:27:15.969Z,11.60
2022-11-04T09:29:43.650Z,11.60
2022-11-04T09:32:11.347Z,11.70
2022-11-04T09:34:39.073Z,11.80
2022-11-04T09:37:06.802Z,11.90
2022-11-04T09:39:35.826Z,12.00
2022-11-04T09:42:21.569Z,12.20
2022-11-04T09:45:20.236Z,12.30
2022-11-04T09:47:40.044Z,12.40
2022-11-04T09:50:11.255Z,12.40
2022-11-04T09:52:42.767Z,12.40
2022-11-04T09:55:17.508Z,12.40
2022-11-04T09:57:45.469Z,12.40
2022-11-04T10:00:15.978Z,12.30
2022-11-04T10:02:50.241Z,12.30
2022-11-04T10:05:23.728Z,12.30
2022-11-04T10:08:00.812Z,12.20
2022-11-04T10:10:35.349Z,12.20
2022-11-04T10:13:09.840Z,12.10
2022-11-04T10:16:10.766Z,12.10
2022-11-04T10:18:48.069Z,12.30
2022-11-04T10:21:21.283Z,12.40
2022-11-04T10:24:01.604Z,12.30
2022-11-04T10:26:33.876Z,12.30
2022-11-04T10:29:04.006Z,12.30
2022-11-04T10:31:31.692Z,12.20
2022-11-04T10:34:00.601Z,12.30
2022-11-04T10:36:28.547Z,12.30
2022-11-04T10:38:57.211Z,12.30
2022-11-04T10:41:27.658Z,12.30
2022-11-04T10:43:58.988Z,12.40
2022-11-04T10:46:35.724Z,12.60
2022-11-04T10:49:14.743Z,12.70
2022-11-04T10:51:42.413Z,12.90
2022-11-04T10:54:11.171Z,13.30
2022-11-04T10:56:41.125Z,13.70
2022-11-04T10:59:20.499Z,14.30
2022-11-04T11:01:52.982Z,14.30
2022-11-04T11:04:25.988Z,14.00
2022-11-04T11:06:54.361Z,13.90
2022-11-04T11:09:25.727Z,13.90
2022-11-04T11:11:53.877Z,13.80
2022-11-04T11:14:32.703Z,13.90
2022-11-04T11:17:15.382Z,13.80
2022-11-04T11:19:46.040Z,13.50
2022-11-04T11:22:28.300Z,13.50
2022-11-04T11:25:12.497Z,13.50
2022-11-04T11:27:40.414Z,13.70
2022-11-04T11:30:19.838Z,13.80
2022-11-04T11:32:53.347Z,13.60
2022-11-04T11:35:22.930Z,13.40
2022-11-04T11:37:50.600Z,13.40
2022-11-04T11:40:25.960Z,13.40
2022-11-04T11:42:53.983Z,13.30
2022-11-04T11:45:23.807Z,13.50
2022-11-04T11:47:55.037Z,13.80
2022-11-04T11:50:26.128Z,14.50
2022-11-04T11:52:54.830Z,15.10
2022-11-04T11:55:24.646Z,15.30
2022-11-04T12:00:52.032Z,14.60
2022-11-04T12:03:31.099Z,14.40
2022-11-04T12:06:27.995Z,14.30
2022-11-04T12:09:20.642Z,14.30
2022-11-04T12:11:59.673Z,14.40
2022-11-04T12:14:33.177Z,14.20
2022-11-04T12:17:05.448Z,14.20
2022-11-04T12:19:54.257Z,14.20
2022-11-04T12:22:27.128Z,14.00
2022-11-04T12:25:02.814Z,13.70
2022-11-04T12:27:35.133Z,13.60
2022-11-04T12:30:06.518Z,13.60
2022-11-04T12:32:41.545Z,13.90
2022-11-04T12:35:18.577Z,14.20
2022-11-04T12:37:52.550Z,14.50
2022-11-04T12:40:21.918Z,14.90
2022-11-04T12:42:59.278Z,15.50
2022-11-04T12:45:31.853Z,15.70
2022-11-04T12:48:05.177Z,16.00
2022-11-04T12:50:47.980Z,16.20
2022-11-04T12:53:24.714Z,16.30
2022-11-04T12:56:00.358Z,16.20
2022-11-04T12:58:33.843Z,16.40
2022-11-04T13:01:03.456Z,16.50
2022-11-04T13:03:34.561Z,16.30
2022-11-04T13:06:04.475Z,16.30
2022-11-04T13:08:34.358Z,16.00
2022-11-04T13:11:06.826Z,15.80
2022-11-04T13:13:37.228Z,15.50
2022-11-04T13:16:07.645Z,15.20
2022-11-04T13:18:38.051Z,15.00
2022-11-04T13:21:07.166Z,14.80
2022-11-04T13:23:38.313Z,14.70
2022-11-04T13:26:07.948Z,14.50
2022-11-04T13:28:40.377Z,14.60
2022-11-04T13:31:12.195Z,14.60
2022-11-04T13:33:48.714Z,14.50
2022-11-04T13:36:23.562Z,14.50
2022-11-04T13:38:53.509Z,14.40
2022-11-04T13:41:32.189Z,14.30
2022-11-04T13:44:02.537Z,14.30
2022-11-04T13:46:31.426Z,14.30
2022-11-04T13:49:02.597Z,14.40
2022-11-04T13:51:40.904Z,14.30
2022-11-04T13:54:14.552Z,14.20
2022-11-04T13:56:42.398Z,14.20
2022-11-04T13:59:20.833Z,14.20
2022-11-04T14:01:48.758Z,14.10
2022-11-04T14:04:26.781Z,14.10
2022-11-04T14:06:55.839Z,14.10
2022-11-04T14:09:50.361Z,14.20
2022-11-04T14:12:18.935Z,14.10
2022-11-04T14:14:47.513Z,14.00
2022-11-04T14:17:30.186Z,14.00
2022-11-04T14:20:00.746Z,13.90
2022-11-04T14:22:33.512Z,13.90
2022-11-04T14:25:03.066Z,13.80
2022-11-04T14:27:37.718Z,13.80
2022-11-04T14:30:06.143Z,13.70
2022-11-04T14:32:37.206Z,13.70
2022-11-04T14:35:08.758Z,13.70
2022-11-04T14:37:37.494Z,13.70
2022-11-04T14:40:07.077Z,13.70
2022-11-04T14:42:45.861Z,13.50
2022-11-04T14:45:17.919Z,13.30
2022-11-04T14:47:47.877Z,13.10
2022-11-04T14:50:19.329Z,12.80
2022-11-04T14:52:49.183Z,12.80
2022-11-04T14:55:18.188Z,12.70
2022-11-04T14:57:46.580Z,12.60
2022-11-04T15:00:38.570Z,12.50
2022-11-04T15:03:10.477Z,12.50
2022-11-04T15:05:50.714Z,12.50
2022-11-04T15:08:32.577Z,12.50
2022-11-04T15:11:02.503Z,12.40
2022-11-04T15:13:33.366Z,12.40
2022-11-04T15:16:03.082Z,12.40
2022-11-04T15:18:31.032Z,12.40
2022-11-04T15:21:01.380Z,12.40
2022-11-04T15:23:29.888Z,12.40
2022-11-04T15:25:58.501Z,12.50
2022-11-04T15:28:28.102Z,12.40
2022-11-04T15:31:06.758Z,12.50
2022-11-04T15:33:37.192Z,12.50
2022-11-04T15:36:06.901Z,12.50
2022-11-04T15:38:34.713Z,12.50
2022-11-04T15:41:22.953Z,12.50
2022-11-04T15:43:49.774Z,12.50
2022-11-04T15:46:18.775Z,12.50
2022-11-04T15:49:00.580Z,12.50
2022-11-04T15:51:30.943Z,12.50
2022-11-04T15:53:59.845Z,12.40
2022-11-04T15:56:28.728Z,12.30
2022-11-04T15:58:57.256Z,12.30
2022-11-04T16:01:28.897Z,12.10
2022-11-04T16:03:58.200Z,12.20
2022-11-04T16:06:43.665Z,12.10
2022-11-04T16:09:23.723Z,12.10
2022-11-04T16:12:08.097Z,12.10
2022-11-04T16:14:35.831Z,12.00
2022-11-04T16:17:03.596Z,12.00
2022-11-04T16:19:32.196Z,12.00
2022-11-04T16:22:00.716Z,12.00
2022-11-04T16:24:31.662Z,12.00
2022-11-04T16:26:59.656Z,12.00
2022-11-04T16:29:28.626Z,11.90
2022-11-04T16:32:07.337Z,11.90
2022-11-04T16:34:35.260Z,11.70
2022-11-04T16:37:03.208Z,11.60
2022-11-04T16:39:32.606Z,11.40
2022-11-04T16:42:00.370Z,11.30
2022-11-04T16:44:28.318Z,11.30
2022-11-04T16:46:57.543Z,11.20
2022-11-04T16:49:25.229Z,11.20
2022-11-04T16:51:55.185Z,11.20
2022-11-04T16:54:24.520Z,11.20
2022-11-04T16:56:54.419Z,11.20
2022-11-04T16:59:22.385Z,11.20
2022-11-04T17:01:50.338Z,11.30
2022-11-04T17:04:18.145Z,11.30
2022-11-04T17:06:46.358Z,11.40
2022-11-04T17:09:20.357Z,11.30
2022-11-04T17:11:48.124Z,11.40
2022-11-04T17:14:17.458Z,11.30
2022-11-04T17:16:45.391Z,11.30
2022-11-04T17:19:15.403Z,11.30
2022-11-04T17:21:43.429Z,11.30
2022-11-04T17:24:11.274Z,11.30
2022-11-04T17:26:39.108Z,11.30
2022-11-04T17:29:06.888Z,11.30
2022-11-04T17:31:36.067Z,11.20
2022-11-04T17:34:04.000Z,11.20
2022-11-04T17:36:31.743Z,11.10
2022-11-04T17:38:59.482Z,11.00
2022-11-04T17:41:44.765Z,10.80
2022-11-04T17:44:12.480Z,10.80
2022-11-04T17:46:44.703Z,10.80
2022-11-04T17:49:13.729Z,10.80
2022-11-04T17:51:42.612Z,10.80
2022-11-04T17:54:10.472Z,10.80
2022-11-04T17:56:38.507Z,10.90
2022-11-04T17:59:06.191Z,10.90
2022-11-04T18:01:34.539Z,10.90
2022-11-04T18:04:03.901Z,10.90
2022-11-04T18:06:32.032Z,10.90
2022-11-04T18:09:00.057Z,10.90
2022-11-04T18:11:47.156Z,10.90
2022-11-04T18:14:16.867Z,11.00
2022-11-04T18:16:46.071Z,11.00
2022-11-04T18:19:15.894Z,11.00
2022-11-04T18:21:43.798Z,11.00
2022-11-04T18:24:12.222Z,10.90
2022-11-04T18:26:40.124Z,10.90
2022-11-04T18:29:07.947Z,10.80
2022-11-04T18:31:36.768Z,10.70
2022-11-04T18:34:06.492Z,10.70
2022-11-04T18:36:35.678Z,10.60
2022-11-04T18:39:03.361Z,10.60
2022-11-04T18:41:31.072Z,10.70
2022-11-04T18:43:59.959Z,10.70
2022-11-04T18:46:27.817Z,10.70
2022-11-04T18:48:55.537Z,10.70
2022-11-04T18:51:23.897Z,10.70
2022-11-04T18:53:53.278Z,10.70
2022-11-04T18:56:22.074Z,10.70
2022-11-04T18:58:50.149Z,10.70
2022-11-04T19:01:19.244Z,10.70
2022-11-04T19:03:47.101Z,10.80
2022-11-04T19:06:16.243Z,10.80
2022-11-04T19:08:46.827Z,10.80
2022-11-04T19:11:17.518Z,10.80
2022-11-04T19:13:45.230Z,10.80
2022-11-04T19:16:14.117Z,10.80
2022-11-04T19:18:41.884Z,10.80
2022-11-04T19:21:12.150Z,10.80
2022-11-04T19:23:39.989Z,10.80
2022-11-04T19:26:08.857Z,10.80
2022-11-04T19:28:47.699Z,10.80
2022-11-04T19:31:16.946Z,10.80
2022-11-04T19:33:45.029Z,10.80
2022-11-04T19:36:13.556Z,10.70
2022-11-04T19:38:41.375Z,10.60
2022-11-04T19:41:31.176Z,10.60
2022-11-04T19:44:00.541Z,10.60
2022-11-04T19:46:28.467Z,10.60
2022-11-04T19:48:56.468Z,10.60
2022-11-04T19:51:29.213Z,10.60
2022-11-04T19:53:59.410Z,10.60
2022-11-04T19:56:27.360Z,10.60
2022-11-04T19:58:55.152Z,10.60
2022-11-04T20:01:24.333Z,10.60
2022-11-04T20:03:52.350Z,10.50
2022-11-04T20:06:20.175Z,10.50
2022-11-04T20:08:48.815Z,10.50
2022-11-04T20:11:17.365Z,10.70
2022-11-04T20:13:44.149Z,10.60
2022-11-04T20:16:16.697Z,10.50
2022-11-04T20:18:46.320Z,10.60
2022-11-04T20:21:14.458Z,10.50
2022-11-04T20:23:44.011Z,10.40
2022-11-04T20:26:19.208Z,10.40
2022-11-04T20:28:48.233Z,10.40
2022-11-04T20:31:17.986Z,10.30
2022-11-04T20:33:47.397Z,10.40
2022-11-04T20:36:16.955Z,10.30
2022-11-04T20:38:46.989Z,10.30
2022-11-04T20:41:18.538Z,10.30
2022-11-04T20:43:46.929Z,10.20
2022-11-04T20:46:15.894Z,10.20
2022-11-04T20:48:43.571Z,10.20
2022-11-04T20:51:13.728Z,10.20
2022-11-04T20:53:41.720Z,10.20
2022-11-04T20:56:10.562Z,10.20
2022-11-04T20:58:39.168Z,10.20
2022-11-04T21:01:07.900Z,10.10
2022-11-04T21:03:35.781Z,10.10
2022-11-04T21:06:03.510Z,10.10
2022-11-04T21:08:34.164Z,10.00
2022-11-04T21:11:02.392Z,10.00
2022-11-04T21:13:30.229Z,10.00
2022-11-04T21:15:59.012Z,10.00
2022-11-04T21:18:26.996Z,10.00
2022-11-04T21:20:54.811Z,10.00
2022-11-04T21:23:22.732Z,10.00
2022-11-04T21:25:53.756Z,10.00
2022-11-04T21:28:21.536Z,10.00
2022-11-04T21:30:51.123Z,10.00
2022-11-04T21:33:18.861Z,10.00
2022-11-04T21:35:47.933Z,10.00
2022-11-04T21:38:16.443Z,10.00
2022-11-04T21:40:44.143Z,10.00
2022-11-04T21:43:13.503Z,9.90
2022-11-04T21:45:41.210Z,9.90
2022-11-04T21:48:09.343Z,9.90
2022-11-04T21:50:37.315Z,10.00
2022-11-04T21:53:04.979Z,10.00
2022-11-04T21:55:32.684Z,10.10
2022-11-04T21:58:00.384Z,10.00
2022-11-04T22:00:29.420Z,10.10
2022-11-04T22:02:57.227Z,10.00
2022-11-04T22:05:24.970Z,10.10
2022-11-04T22:08:10.002Z,10.10
2022-11-04T22:10:37.733Z,10.10
2022-11-04T22:13:05.416Z,10.20
2022-11-04T22:15:51.969Z,10.30
2022-11-04T22:18:19.651Z,10.20
2022-11-04T22:20:47.365Z,10.20
2022-11-04T22:23:15.223Z,10.10
2022-11-04T22:25:48.863Z,10.10
2022-11-04T22:28:17.773Z,10.00
2022-11-04T22:30:46.882Z,10.00
2022-11-04T22:33:14.561Z,10.00
2022-11-04T22:35:45.203Z,9.90
2022-11-04T22:38:12.914Z,10.00
2022-11-04T22:40:40.925Z,10.00
2022-11-04T22:43:08.898Z,10.10
2022-11-04T22:45:38.086Z,10.10
2022-11-04T22:48:07.287Z,10.10
2022-11-04T22:50:36.092Z,10.10
2022-11-04T22:53:04.058Z,10.20
2022-11-04T22:55:31.733Z,10.20
2022-11-04T22:57:59.446Z,10.20
2022-11-04T23:00:27.121Z,10.30
2022-11-04T23:02:54.916Z,10.20
2022-11-04T23:05:27.075Z,10.20
2022-11-04T23:07:56.715Z,10.20
2022-11-04T23:10:41.974Z,10.10
2022-11-04T23:13:28.133Z,10.10
2022-11-04T23:16:13.349Z,10.20
2022-11-04T23:18:43.629Z,10.20
2022-11-04T23:21:31.870Z,10.10
2022-11-04T23:24:37.043Z,10.10
2022-11-04T23:27:04.864Z,9.90
2022-11-04T23:29:50.181Z,9.80
2022-11-04T23:32:21.891Z,9.80
2022-11-04T23:35:18.268Z,9.90
2022-11-04T23:37:48.549Z,9.90
2022-11-04T23:40:16.258Z,10.00
2022-11-04T23:42:43.933Z,10.00
2022-11-04T23:45:29.180Z,10.00
2022-11-04T23:48:14.662Z,10.20
2022-11-04T23:51:14.317Z,10.10
2022-11-04T23:54:01.162Z,10.20
2022-11-04T23:56:46.982Z,10.20
2022-11-04T23:59:33.740Z,10.30
